Time;durP1;ratioP1;P1;durP2;ratioP2;P2;SDS_P1;SDS_P2;PMS_P1;PMS_P2;Temp;Humidity;BMP_temperature;BMP_pressure;BME280_temperature;BME280_humidity;BME280_pressure;Samples;Min_cycle;Max_cycle;Signal;HPM_P1;HPM_P2
2023/03/05 00:00:50;;;;;;;0.35;0.30;;;15.90;61.10;;;;;;4994659;28;20031;-67
2023/03/05 00:03:16;;;;;;;0.77;0.40;;;15.90;61.10;;;;;;4995664;28;20034;-67
2023/03/05 00:05:42;;;;;;;0.98;0.50;;;15.90;61.10;;;;;;4995566;28;20026;-67
2023/03/05 00:08:07;;;;;;;1.10;0.40;;;15.90;61.10;;;;;;4995514;28;20031;-67
2023/03/05 00:10:33;;;;;;;0.75;0.38;;;15.90;61.10;;;;;;4995511;28;20077;-67
2023/03/05 00:12:58;;;;;;;0.50;0.40;;;15.90;61.10;;;;;;4995588;28;20100;-67
2023/03/05 00:15:24;;;;;;;0.32;0.30;;;15.90;61.10;;;;;;4995482;28;20031;-67
2023/03/05 00:17:50;;;;;;;0.40;0.40;;;15.90;61.10;;;;;;4994417;28;20030;-67
2023/03/05 00:20:15;;;;;;;0.77;0.52;;;15.90;61.20;;;;;;4994242;28;20046;-67
2023/03/05 00:22:41;;;;;;;0.60;0.40;;;15.90;61.20;;;;;;4993941;28;20522;-67
2023/03/05 00:25:07;;;;;;;0.40;0.40;;;15.90;61.10;;;;;;4994193;28;20235;-67
2023/03/05 00:27:33;;;;;;;0.50;0.38;;;15.90;61.10;;;;;;4994906;28;20027;-67
2023/03/05 00:29:58;;;;;;;0.25;0.25;;;15.90;61.10;;;;;;4995241;28;20080;-67
2023/03/05 00:32:24;;;;;;;0.50;0.40;;;15.90;61.10;;;;;;4995375;28;20100;-67
2023/03/05 00:34:49;;;;;;;0.30;0.30;;;15.90;61.10;;;;;;4995101;28;20030;-67
2023/03/05 00:37:16;;;;;;;1.65;0.65;;;15.90;61.10;;;;;;4989980;28;20033;-67
2023/03/05 00:39:41;;;;;;;0.57;0.32;;;15.90;61.10;;;;;;4986376;28;20538;-67
2023/03/05 00:42:07;;;;;;;1.15;0.32;;;15.90;61.10;;;;;;4983369;28;20154;-67
2023/03/05 00:44:33;;;;;;;0.65;0.50;;;15.80;61.00;;;;;;4975632;28;20076;-67
2023/03/05 00:46:58;;;;;;;0.55;0.50;;;15.90;61.10;;;;;;4974217;28;20378;-67
2023/03/05 00:49:24;;;;;;;0.75;0.55;;;15.90;61.10;;;;;;4993823;28;20381;-67
2023/03/05 00:51:50;;;;;;;0.50;0.50;;;15.90;61.10;;;;;;4994787;28;20101;-67
2023/03/05 00:54:15;;;;;;;0.77;0.40;;;15.90;61.10;;;;;;4987620;28;20081;-67
2023/03/05 00:56:41;;;;;;;0.85;0.38;;;15.90;61.10;;;;;;4975186;28;20035;-67
2023/03/05 00:59:06;;;;;;;0.43;0.43;;;15.90;61.10;;;;;;4974158;28;20421;-66
2023/03/05 01:01:32;;;;;;;0.50;0.50;;;15.90;61.10;;;;;;4975174;28;20114;-67
2023/03/05 01:03:59;;;;;;;0.40;0.40;;;15.90;61.10;;;;;;4992220;28;20104;-67
2023/03/05 01:06:25;;;;;;;0.50;0.40;;;15.90;61.00;;;;;;4994583;28;20081;-67
2023/03/05 01:08:51;;;;;;;0.40;0.40;;;15.90;61.00;;;;;;4977338;28;20484;-67
2023/03/05 01:11:17;;;;;;;0.57;0.43;;;15.90;61.00;;;;;;4993123;28;20046;-67
2023/03/05 01:13:42;;;;;;;0.40;0.40;;;15.90;61.10;;;;;;4993290;28;20022;-67
2023/03/05 01:16:08;;;;;;;0.60;0.60;;;15.80;61.00;;;;;;4993038;28;20041;-67
2023/03/05 01:18:33;;;;;;;0.50;0.50;;;15.90;61.10;;;;;;4993103;28;20030;-67
2023/03/05 01:20:59;;;;;;;0.52;0.50;;;15.90;61.10;;;;;;4993035;28;20558;-67
2023/03/05 01:23:25;;;;;;;0.40;0.40;;;15.90;61.00;;;;;;4992909;28;20600;-67
2023/03/05 01:25:55;;;;;;;0.40;0.40;;;15.90;61.00;;;;;;4992844;28;20543;-67
2023/03/05 01:28:21;;;;;;;0.70;0.40;;;15.90;61.00;;;;;;4992906;28;20025;-67
2023/03/05 01:30:46;;;;;;;0.47;0.43;;;15.90;61.00;;;;;;4993041;28;20026;-67
2023/03/05 01:33:12;;;;;;;0.40;0.35;;;15.90;61.00;;;;;;4994131;28;20023;-67
2023/03/05 01:35:37;;;;;;;0.70;0.40;;;15.90;61.00;;;;;;4994176;28;20050;-67
2023/03/05 01:38:03;;;;;;;0.82;0.40;;;15.90;61.00;;;;;;4993815;28;20033;-67
2023/03/05 01:40:29;;;;;;;0.30;0.30;;;15.90;61.00;;;;;;4992642;28;20031;-67
2023/03/05 01:43:07;;;;;;;0.40;0.40;;;15.90;61.00;;;;;;4992876;28;20026;-67
2023/03/05 01:45:34;;;;;;;0.40;0.40;;;15.90;61.00;;;;;;4992535;28;20030;-67
2023/03/05 01:48:00;;;;;;;0.63;0.55;;;15.90;61.00;;;;;;4992390;28;20019;-67
2023/03/05 01:50:25;;;;;;;0.65;0.50;;;15.90;61.00;;;;;;4993457;28;20044;-67
2023/03/05 01:53:03;;;;;;;0.40;0.40;;;15.90;61.00;;;;;;4992286;28;20030;-67
2023/03/05 01:55:29;;;;;;;0.65;0.45;;;15.90;61.00;;;;;;4993820;28;20027;-67
2023/03/05 01:58:03;;;;;;;0.40;0.40;;;15.90;61.00;;;;;;4992431;28;20030;-67
2023/03/05 02:00:45;;;;;;;0.45;0.40;;;15.90;61.00;;;;;;4976332;28;20030;-66
2023/03/05 02:03:11;;;;;;;1.27;0.40;;;15.90;60.90;;;;;;4992342;28;20033;-67
2023/03/05 02:05:39;;;;;;;0.40;0.40;;;15.90;60.90;;;;;;4992321;28;20022;-67
2023/03/05 02:08:07;;;;;;;0.35;0.35;;;15.90;61.00;;;;;;4992055;28;20022;-67
2023/03/05 02:10:33;;;;;;;1.20;0.40;;;15.90;61.00;;;;;;4992295;28;20025;-67
2023/03/05 02:13:01;;;;;;;0.80;0.40;;;15.90;60.90;;;;;;4992265;28;20085;-67
2023/03/05 02:15:27;;;;;;;0.30;0.30;;;15.90;61.00;;;;;;4975947;28;20058;-67
2023/03/05 02:17:53;;;;;;;0.50;0.50;;;15.90;60.90;;;;;;4992246;28;20034;-67
2023/03/05 02:20:20;;;;;;;0.75;0.40;;;15.90;60.90;;;;;;4993462;28;20026;-67
2023/03/05 02:22:46;;;;;;;0.38;0.38;;;15.90;61.00;;;;;;4991804;28;20112;-67
2023/03/05 02:25:23;;;;;;;0.65;0.35;;;15.90;61.90;;;;;;4992258;28;20030;-67
2023/03/05 02:27:53;;;;;;;1.05;0.50;;;15.90;60.90;;;;;;4992076;28;20022;-67
2023/03/05 02:30:19;;;;;;;0.38;0.38;;;15.90;60.90;;;;;;4992087;28;20365;-67
2023/03/05 02:32:46;;;;;;;0.60;0.38;;;15.90;60.80;;;;;;4993140;28;20073;-67
2023/03/05 02:35:11;;;;;;;0.30;0.30;;;15.90;60.90;;;;;;4993164;28;20493;-67
2023/03/05 02:37:37;;;;;;;0.40;0.40;;;15.90;60.90;;;;;;4991760;28;20030;-67
2023/03/05 02:40:03;;;;;;;0.63;0.50;;;15.90;60.90;;;;;;4992979;28;20463;-67
2023/03/05 02:42:32;;;;;;;0.43;0.40;;;15.90;60.90;;;;;;4975801;28;20050;-67
2023/03/05 02:44:59;;;;;;;0.55;0.30;;;15.90;60.90;;;;;;4991875;28;20018;-67
2023/03/05 02:47:25;;;;;;;0.50;0.50;;;15.90;60.90;;;;;;4993185;28;20033;-67
2023/03/05 02:49:51;;;;;;;0.63;0.30;;;15.80;60.80;;;;;;4993044;28;20015;-67
2023/03/05 02:52:16;;;;;;;0.65;0.43;;;15.90;60.90;;;;;;4992791;28;20073;-67
2023/03/05 02:54:42;;;;;;;0.90;0.60;;;15.90;60.90;;;;;;4993015;28;20026;-67
2023/03/05 02:57:08;;;;;;;0.73;0.40;;;15.90;60.90;;;;;;4992963;28;20065;-66
2023/03/05 02:59:33;;;;;;;0.50;0.50;;;15.90;60.90;;;;;;4991944;28;20396;-66
2023/03/05 03:01:59;;;;;;;0.57;0.57;;;15.90;60.90;;;;;;4996942;28;20034;-67
2023/03/05 03:04:25;;;;;;;0.50;0.40;;;15.80;60.80;;;;;;4996805;28;20106;-67
2023/03/05 03:06:50;;;;;;;1.27;0.57;;;15.90;61.90;;;;;;4996635;28;20176;-67
2023/03/05 03:09:16;;;;;;;1.08;0.40;;;15.90;60.80;;;;;;4995471;28;20073;-67
2023/03/05 03:11:41;;;;;;;0.60;0.52;;;15.80;60.80;;;;;;4995713;28;20030;-67
2023/03/05 03:14:07;;;;;;;0.70;0.40;;;15.90;60.80;;;;;;4995532;28;20102;-67
2023/03/05 03:16:33;;;;;;;0.70;0.32;;;15.90;60.80;;;;;;4996697;28;20031;-67
2023/03/05 03:18:58;;;;;;;0.52;0.43;;;15.80;60.80;;;;;;4996662;28;20031;-67
2023/03/05 03:21:25;;;;;;;0.40;0.30;;;15.90;60.80;;;;;;4996292;28;20113;-67
2023/03/05 03:23:51;;;;;;;0.52;0.47;;;15.90;60.80;;;;;;4995204;28;20038;-67
2023/03/05 03:26:17;;;;;;;0.50;0.45;;;15.90;60.80;;;;;;4995102;28;20034;-67
2023/03/05 03:28:42;;;;;;;0.65;0.60;;;15.80;60.80;;;;;;4995229;28;20101;-67
2023/03/05 03:31:08;;;;;;;0.47;0.38;;;15.90;60.80;;;;;;4996536;28;20037;-67
2023/03/05 03:33:34;;;;;;;0.60;0.38;;;15.80;60.70;;;;;;4995277;28;20026;-67
2023/03/05 03:35:59;;;;;;;0.35;0.35;;;15.80;60.70;;;;;;4996076;28;20102;-67
2023/03/05 03:38:25;;;;;;;0.32;0.32;;;15.90;60.90;;;;;;4996023;28;20121;-67
2023/03/05 03:40:51;;;;;;;0.40;0.40;;;15.90;60.80;;;;;;4994955;28;20042;-67
2023/03/05 03:43:16;;;;;;;0.47;0.38;;;15.90;61.80;;;;;;4995094;28;20034;-67
2023/03/05 03:45:42;;;;;;;0.45;0.45;;;15.80;60.70;;;;;;4996043;28;20089;-67
2023/03/05 03:48:09;;;;;;;0.80;0.43;;;15.90;60.80;;;;;;4994962;28;20477;-67
2023/03/05 03:50:38;;;;;;;0.50;0.50;;;15.90;60.80;;;;;;4994613;28;20443;-67
2023/03/05 03:53:04;;;;;;;0.52;0.30;;;15.90;60.80;;;;;;4994816;28;20559;-67
2023/03/05 03:55:29;;;;;;;0.40;0.40;;;15.90;60.80;;;;;;4995905;28;20034;-67
2023/03/05 03:57:55;;;;;;;0.40;0.40;;;15.90;60.80;;;;;;4995827;28;20109;-67
2023/03/05 04:00:21;;;;;;;0.70;0.40;;;15.80;60.70;;;;;;4994543;28;20109;-67
2023/03/05 04:02:46;;;;;;;0.55;0.40;;;15.90;60.80;;;;;;4995999;28;20153;-67
2023/03/05 04:05:12;;;;;;;0.75;0.30;;;15.90;60.80;;;;;;4995464;28;20401;-67
2023/03/05 04:07:38;;;;;;;0.93;0.50;;;15.80;60.70;;;;;;4994703;28;20403;-67
2023/03/05 04:10:04;;;;;;;0.98;0.40;;;15.80;60.70;;;;;;4994573;28;20112;-67
2023/03/05 04:12:29;;;;;;;0.38;0.38;;;15.80;60.80;;;;;;4994902;28;20027;-67
2023/03/05 04:14:55;;;;;;;0.65;0.30;;;15.80;60.70;;;;;;4995528;28;20026;-67
2023/03/05 04:17:20;;;;;;;0.95;0.40;;;15.80;60.70;;;;;;4995478;28;20113;-67
2023/03/05 04:19:46;;;;;;;0.40;0.40;;;15.90;60.80;;;;;;4994298;28;20026;-67
2023/03/05 04:22:13;;;;;;;0.68;0.50;;;15.90;60.80;;;;;;4993987;28;20128;-67
2023/03/05 04:24:38;;;;;;;0.28;0.28;;;15.80;60.70;;;;;;4995230;28;20030;-67
2023/03/05 04:27:05;;;;;;;0.65;0.30;;;15.90;60.80;;;;;;4995419;28;20404;-67
2023/03/05 04:29:30;;;;;;;0.45;0.45;;;15.90;60.80;;;;;;4994216;28;20540;-67
2023/03/05 04:31:56;;;;;;;1.05;0.55;;;15.80;60.70;;;;;;4995351;28;20384;-67
2023/03/05 04:34:22;;;;;;;0.40;0.40;;;15.80;60.70;;;;;;4993834;28;20027;-67
2023/03/05 04:36:47;;;;;;;0.30;0.28;;;15.90;60.80;;;;;;4995156;28;20041;-67
2023/03/05 04:39:13;;;;;;;0.32;0.32;;;15.80;60.70;;;;;;4994943;28;20120;-67
2023/03/05 04:41:39;;;;;;;0.30;0.30;;;15.90;60.80;;;;;;4994044;28;20061;-67
2023/03/05 04:44:04;;;;;;;0.57;0.50;;;15.80;60.80;;;;;;4995110;28;20476;-67
2023/03/05 04:46:30;;;;;;;0.55;0.50;;;15.80;60.70;;;;;;4993709;28;20516;-67
2023/03/05 04:48:56;;;;;;;0.50;0.40;;;15.80;60.70;;;;;;4994620;28;20045;-67
2023/03/05 04:51:22;;;;;;;0.47;0.40;;;15.80;60.70;;;;;;4993523;28;20021;-67
2023/03/05 04:53:47;;;;;;;0.30;0.30;;;15.80;60.70;;;;;;4994970;28;20084;-67
2023/03/05 04:56:13;;;;;;;0.70;0.30;;;15.80;60.70;;;;;;4993535;28;20057;-67
2023/03/05 04:58:39;;;;;;;0.73;0.38;;;15.90;60.70;;;;;;4994773;28;20381;-67
2023/03/05 05:01:05;;;;;;;1.48;0.52;;;15.90;60.80;;;;;;4993539;28;20168;-67
2023/03/05 05:03:30;;;;;;;0.32;0.32;;;15.80;60.70;;;;;;4993285;28;20061;-67
2023/03/05 05:05:56;;;;;;;0.55;0.50;;;15.80;60.70;;;;;;4993370;28;20019;-67
2023/03/05 05:08:22;;;;;;;0.93;0.40;;;15.80;60.70;;;;;;4993248;28;20397;-67
2023/03/05 05:10:58;;;;;;;0.50;0.30;;;15.80;60.70;;;;;;4994600;28;20030;-67
2023/03/05 05:13:24;;;;;;;0.70;0.40;;;15.80;60.70;;;;;;4993134;28;20024;-67
2023/03/05 05:15:50;;;;;;;1.55;0.45;;;15.80;60.70;;;;;;4993139;28;20416;-67
2023/03/05 05:18:16;;;;;;;0.65;0.40;;;15.80;60.70;;;;;;4993304;28;20104;-67
2023/03/05 05:20:42;;;;;;;1.05;0.50;;;15.80;60.60;;;;;;4993201;28;20108;-67
2023/03/05 05:23:07;;;;;;;0.77;0.55;;;15.80;60.60;;;;;;4993554;28;20097;-67
2023/03/05 05:25:33;;;;;;;0.30;0.20;;;15.90;60.70;;;;;;4992774;28;20031;-67
2023/03/05 05:27:59;;;;;;;0.40;0.30;;;15.90;60.70;;;;;;4994280;28;20444;-67
2023/03/05 05:30:24;;;;;;;0.30;0.30;;;15.80;60.60;;;;;;4993916;28;20030;-67
2023/03/05 05:32:50;;;;;;;0.60;0.30;;;15.80;60.60;;;;;;4992928;28;20108;-67
2023/03/05 05:35:16;;;;;;;0.75;0.50;;;15.80;60.70;;;;;;4993993;28;20030;-67
2023/03/05 05:37:41;;;;;;;1.08;0.40;;;15.80;60.60;;;;;;4994042;28;20415;-67
2023/03/05 05:40:08;;;;;;;0.30;0.30;;;15.80;60.60;;;;;;4992740;28;20077;-66
2023/03/05 05:42:34;;;;;;;0.30;0.30;;;15.80;60.60;;;;;;4976679;28;20096;-67
2023/03/05 05:45:01;;;;;;;0.20;0.20;;;15.80;60.60;;;;;;4992267;28;20517;-67
2023/03/05 05:47:28;;;;;;;0.65;0.40;;;15.80;60.60;;;;;;4993914;28;20018;-67
2023/03/05 05:49:54;;;;;;;0.65;0.20;;;15.80;60.60;;;;;;4993932;28;20023;-67
2023/03/05 05:52:19;;;;;;;0.28;0.20;;;15.80;60.60;;;;;;4992422;28;20034;-67
2023/03/05 05:54:45;;;;;;;0.40;0.30;;;15.80;60.60;;;;;;4992552;28;20489;-67
2023/03/05 05:57:11;;;;;;;0.85;0.40;;;15.80;60.60;;;;;;4993698;28;20514;-67
2023/03/05 05:59:37;;;;;;;0.40;0.30;;;15.80;60.70;;;;;;4993373;28;20026;-67
2023/03/05 06:02:03;;;;;;;0.30;0.20;;;15.80;60.60;;;;;;4992408;28;20030;-67
2023/03/05 06:04:28;;;;;;;0.68;0.45;;;15.80;60.60;;;;;;4993600;28;20054;-67
2023/03/05 06:06:54;;;;;;;0.32;0.20;;;15.80;60.60;;;;;;4993454;28;20065;-66
2023/03/05 06:09:20;;;;;;;1.30;0.50;;;15.80;60.60;;;;;;4992092;28;20019;-66
2023/03/05 06:11:45;;;;;;;0.40;0.30;;;15.80;60.60;;;;;;4993611;28;20022;-67
2023/03/05 06:14:11;;;;;;;0.20;0.20;;;15.80;60.60;;;;;;4993267;28;20037;-67
2023/03/05 06:16:37;;;;;;;0.80;0.22;;;15.80;60.60;;;;;;4992331;28;20026;-66
2023/03/05 06:19:03;;;;;;;1.40;0.40;;;15.80;60.60;;;;;;4992168;28;20420;-67
2023/03/05 06:21:29;;;;;;;0.30;0.30;;;15.80;60.60;;;;;;4991976;28;20034;-67
2023/03/05 06:23:57;;;;;;;0.47;0.47;;;15.80;60.60;;;;;;4991973;28;20061;-67
2023/03/05 06:26:23;;;;;;;0.75;0.40;;;15.80;60.60;;;;;;4992044;28;20066;-67
2023/03/05 06:28:48;;;;;;;1.02;0.38;;;15.80;60.60;;;;;;4975745;28;20101;-67
2023/03/05 06:31:20;;;;;;;0.65;0.35;;;15.80;60.60;;;;;;4993097;28;20073;-67
2023/03/05 06:33:46;;;;;;;0.43;0.30;;;15.80;60.60;;;;;;4992205;28;20052;-67
2023/03/05 06:36:13;;;;;;;0.38;0.30;;;15.80;60.60;;;;;;4992768;28;20756;-67
2023/03/05 06:38:39;;;;;;;1.23;0.40;;;15.80;60.60;;;;;;4992981;28;20030;-67
2023/03/05 06:41:08;;;;;;;0.45;0.30;;;15.80;60.60;;;;;;4992054;28;20026;-67
2023/03/05 06:43:34;;;;;;;0.30;0.30;;;15.80;60.60;;;;;;4992832;28;20460;-67
2023/03/05 06:46:16;;;;;;;0.65;0.50;;;15.80;60.60;;;;;;4992909;28;20033;-67
2023/03/05 06:48:42;;;;;;;0.60;0.20;;;15.80;60.50;;;;;;4993080;28;20018;-67
2023/03/05 06:51:21;;;;;;;0.38;0.38;;;15.80;60.50;;;;;;4992026;28;20444;-67
2023/03/05 06:53:47;;;;;;;0.40;0.40;;;15.80;60.50;;;;;;4991901;28;20429;-67
2023/03/05 06:56:12;;;;;;;0.30;0.30;;;15.80;60.50;;;;;;4993046;28;20102;-67
2023/03/05 06:58:39;;;;;;;0.50;0.30;;;15.80;60.60;;;;;;4991662;28;20068;-67
2023/03/05 07:01:06;;;;;;;0.63;0.52;;;15.80;60.50;;;;;;4991916;28;20425;-67
2023/03/05 07:03:32;;;;;;;0.55;0.40;;;15.80;60.60;;;;;;4992772;28;20031;-67
2023/03/05 07:05:58;;;;;;;1.25;0.60;;;15.80;60.50;;;;;;4991692;28;20030;-67
2023/03/05 07:08:23;;;;;;;0.98;0.75;;;15.80;60.50;;;;;;4992965;28;20082;-67
2023/03/05 07:10:49;;;;;;;0.73;0.50;;;15.80;60.50;;;;;;4992858;28;20022;-67
2023/03/05 07:13:15;;;;;;;1.05;0.70;;;15.80;60.50;;;;;;4992541;28;20037;-67
2023/03/05 07:15:40;;;;;;;0.52;0.50;;;15.80;60.50;;;;;;4992848;28;20022;-67
2023/03/05 07:18:06;;;;;;;1.30;0.75;;;15.80;60.50;;;;;;4991620;28;20374;-67
2023/03/05 07:20:36;;;;;;;1.33;0.77;;;15.80;60.60;;;;;;4991523;28;20377;-66
2023/03/05 07:23:02;;;;;;;0.82;0.50;;;15.80;60.60;;;;;;4992591;28;20078;-67
2023/03/05 07:25:28;;;;;;;1.65;0.70;;;15.80;60.60;;;;;;4992726;28;20081;-67
2023/03/05 07:27:53;;;;;;;1.10;0.80;;;15.80;60.50;;;;;;4991423;28;20026;-67
2023/03/05 07:30:19;;;;;;;0.70;0.60;;;15.80;60.50;;;;;;4991565;28;20381;-67
2023/03/05 07:32:45;;;;;;;1.08;0.85;;;15.80;60.50;;;;;;4992766;28;20030;-67
2023/03/05 07:35:10;;;;;;;1.02;0.65;;;15.80;60.50;;;;;;4982760;28;20030;-67
2023/03/05 07:37:36;;;;;;;0.98;0.80;;;15.80;60.50;;;;;;4988786;28;20103;-66
2023/03/05 07:40:03;;;;;;;0.60;0.60;;;15.80;60.50;;;;;;4992589;28;20511;-66
2023/03/05 07:42:29;;;;;;;1.60;0.90;;;15.80;60.50;;;;;;4987563;28;20422;-67
2023/03/05 07:44:55;;;;;;;1.02;0.90;;;15.80;60.50;;;;;;4973050;28;20034;-66
2023/03/05 07:47:22;;;;;;;0.95;0.80;;;15.80;60.50;;;;;;4973329;28;20055;-67
2023/03/05 07:49:48;;;;;;;1.02;0.93;;;15.80;60.50;;;;;;4959516;28;20400;-67
2023/03/05 07:52:14;;;;;;;0.95;0.70;;;15.80;60.50;;;;;;4988721;28;20019;-67
2023/03/05 07:54:39;;;;;;;1.50;0.70;;;15.80;60.50;;;;;;4994792;28;20468;-67
2023/03/05 07:57:06;;;;;;;1.33;0.73;;;15.80;60.50;;;;;;4994724;28;20077;-67
2023/03/05 07:59:31;;;;;;;1.35;1.00;;;15.80;60.50;;;;;;4994666;28;20022;-67
2023/03/05 08:01:57;;;;;;;0.90;0.80;;;15.80;60.50;;;;;;4995873;28;20088;-66
2023/03/05 08:04:23;;;;;;;1.10;0.95;;;15.80;60.50;;;;;;4995781;28;20019;-67
2023/03/05 08:06:49;;;;;;;1.00;0.90;;;15.80;60.50;;;;;;4994598;28;20037;-67
2023/03/05 08:09:15;;;;;;;1.52;1.13;;;15.80;60.50;;;;;;4982757;28;20371;-67
2023/03/05 08:11:41;;;;;;;1.55;0.90;;;15.80;60.50;;;;;;4974792;28;20050;-67
2023/03/05 08:14:07;;;;;;;1.00;0.90;;;15.80;60.50;;;;;;4974948;28;20436;-67
2023/03/05 08:16:32;;;;;;;1.08;1.00;;;15.80;60.50;;;;;;4974964;28;20038;-67
2023/03/05 08:18:58;;;;;;;1.20;0.95;;;15.80;60.50;;;;;;4976100;28;20114;-67
2023/03/05 08:21:29;;;;;;;1.40;0.75;;;15.80;60.50;;;;;;4974877;28;20117;-67
2023/03/05 08:23:55;;;;;;;2.15;1.00;;;15.80;60.50;;;;;;4974856;28;20125;-67
2023/03/05 08:26:22;;;;;;;1.35;1.00;;;15.80;60.50;;;;;;4958538;28;20034;-67
2023/03/05 08:28:48;;;;;;;1.05;0.80;;;15.80;60.50;;;;;;4974825;28;20019;-67
2023/03/05 08:31:14;;;;;;;1.67;1.20;;;15.80;60.50;;;;;;4974649;28;20015;-66
2023/03/05 08:33:40;;;;;;;2.30;1.23;;;15.80;60.50;;;;;;4975956;28;20023;-67
2023/03/05 08:36:07;;;;;;;1.05;0.82;;;15.80;60.50;;;;;;4988239;28;20034;-67
2023/03/05 08:38:33;;;;;;;0.93;0.82;;;15.80;60.50;;;;;;4995234;28;20023;-67
2023/03/05 08:40:58;;;;;;;1.08;0.98;;;15.80;60.50;;;;;;4994821;28;20035;-67
2023/03/05 08:43:24;;;;;;;1.00;0.90;;;15.80;60.50;;;;;;4995025;28;20116;-67
2023/03/05 08:45:50;;;;;;;1.50;1.10;;;15.80;60.50;;;;;;4995050;28;20148;-66
2023/03/05 08:48:16;;;;;;;0.95;0.80;;;15.80;60.50;;;;;;4993718;28;20018;-67
2023/03/05 08:50:41;;;;;;;1.17;0.90;;;15.80;60.50;;;;;;4994939;28;20354;-67
2023/03/05 08:53:07;;;;;;;1.20;0.80;;;15.80;60.50;;;;;;4995014;28;20400;-67
2023/03/05 08:55:33;;;;;;;0.85;0.85;;;15.80;60.50;;;;;;4994610;28;20030;-67
2023/03/05 08:57:58;;;;;;;0.90;0.80;;;15.80;60.50;;;;;;4994723;28;20076;-66
2023/03/05 09:00:24;;;;;;;1.05;0.75;;;15.80;60.50;;;;;;4994771;28;20089;-67
2023/03/05 09:02:50;;;;;;;1.15;0.88;;;15.80;60.50;;;;;;4994839;28;20053;-66
2023/03/05 09:05:16;;;;;;;1.38;1.00;;;15.80;60.50;;;;;;4994669;28;20034;-67
2023/03/05 09:07:42;;;;;;;0.90;0.90;;;15.80;60.50;;;;;;4993358;28;20018;-67
2023/03/05 09:10:10;;;;;;;1.10;0.90;;;15.80;60.50;;;;;;4994448;28;20054;-67
2023/03/05 09:12:36;;;;;;;1.75;1.05;;;15.80;60.50;;;;;;4993354;28;20073;-67
2023/03/05 09:15:04;;;;;;;1.38;0.75;;;15.80;60.50;;;;;;4994743;28;20029;-67
2023/03/05 09:17:29;;;;;;;1.27;0.82;;;15.80;60.50;;;;;;4994334;28;20485;-67
2023/03/05 09:19:55;;;;;;;1.05;0.70;;;15.80;60.50;;;;;;4993240;28;20037;-67
2023/03/05 09:22:20;;;;;;;2.00;0.90;;;15.80;60.50;;;;;;4993944;28;20054;-67
2023/03/05 09:24:46;;;;;;;1.35;1.00;;;15.80;60.50;;;;;;4992949;28;20033;-67
2023/03/05 09:27:12;;;;;;;1.08;0.80;;;15.80;60.50;;;;;;4994312;28;20142;-67
2023/03/05 09:29:37;;;;;;;1.33;0.80;;;15.80;60.50;;;;;;4994182;28;20022;-67
2023/03/05 09:32:03;;;;;;;1.20;1.10;;;15.80;60.50;;;;;;4992976;28;20034;-67
2023/03/05 09:34:29;;;;;;;1.40;0.70;;;15.80;60.60;;;;;;4994222;28;20093;-66
2023/03/05 09:36:54;;;;;;;1.30;0.90;;;15.80;60.50;;;;;;4992614;28;20413;-67
2023/03/05 09:39:20;;;;;;;1.00;0.80;;;15.80;60.50;;;;;;4994121;28;20488;-67
2023/03/05 09:42:23;;;;;;;0.80;0.68;;;15.70;60.50;;;;;;4994021;28;20045;-67
2023/03/05 09:44:59;;;;;;;0.73;0.70;;;15.80;60.50;;;;;;4974424;28;20047;-67
2023/03/05 09:48:00;;;;;;;1.48;1.00;;;15.80;60.50;;;;;;4989424;28;20065;-67
2023/03/05 09:50:42;;;;;;;1.23;0.80;;;15.80;60.50;;;;;;4972334;28;20105;-67
2023/03/05 09:53:29;;;;;;;1.35;0.80;;;15.80;60.50;;;;;;4972194;28;20034;-67
2023/03/05 09:55:56;;;;;;;1.20;0.80;;;15.80;60.50;;;;;;4972128;28;20049;-67
2023/03/05 09:58:41;;;;;;;1.38;0.80;;;15.70;60.50;;;;;;4972359;28;20386;-67
2023/03/05 10:01:20;;;;;;;0.93;0.70;;;15.80;60.50;;;;;;4972138;28;20045;-67
2023/03/05 10:03:56;;;;;;;0.70;0.63;;;15.80;60.50;;;;;;4972145;28;20214;-67
2023/03/05 10:06:23;;;;;;;2.42;1.00;;;15.70;60.50;;;;;;4971860;28;20034;-67
2023/03/05 10:09:01;;;;;;;1.02;0.82;;;15.70;60.50;;;;;;4972013;28;20030;-66
2023/03/05 10:12:00;;;;;;;1.55;0.80;;;15.80;60.50;;;;;;4971490;28;20031;-67
2023/03/05 10:14:30;;;;;;;0.75;0.70;;;15.80;60.50;;;;;;4955726;28;20527;-66
2023/03/05 10:17:06;;;;;;;0.70;0.70;;;15.80;60.60;;;;;;4971987;28;20065;-67
2023/03/05 10:20:03;;;;;;;0.63;0.60;;;15.80;60.50;;;;;;4971883;28;20056;-67
2023/03/05 10:22:37;;;;;;;1.02;0.70;;;15.80;60.60;;;;;;4971576;28;20138;-67
2023/03/05 10:25:12;;;;;;;0.98;0.80;;;15.80;60.50;;;;;;4972586;28;20093;-67
2023/03/05 10:28:04;;;;;;;0.70;0.60;;;15.80;60.50;;;;;;4988848;28;20018;-66
2023/03/05 10:30:50;;;;;;;0.60;0.57;;;15.80;60.50;;;;;;4988735;28;20023;-66
2023/03/05 10:33:39;;;;;;;0.63;0.63;;;15.80;60.50;;;;;;4986514;28;20374;-67
2023/03/05 10:36:26;;;;;;;0.80;0.70;;;15.80;60.50;;;;;;4985474;28;20043;-67
2023/03/05 10:39:26;;;;;;;0.63;0.50;;;15.80;61.60;;;;;;4991845;28;20081;-67
2023/03/05 10:42:29;;;;;;;0.80;0.80;;;15.80;60.50;;;;;;4992129;28;20084;-67
2023/03/05 10:44:59;;;;;;;0.77;0.60;;;15.80;60.50;;;;;;4993099;28;20030;-66
2023/03/05 10:47:46;;;;;;;1.65;0.63;;;15.70;60.50;;;;;;4991810;28;20041;-67
2023/03/05 10:50:26;;;;;;;1.05;0.70;;;15.80;60.60;;;;;;4991779;28;20497;-67
2023/03/05 10:53:18;;;;;;;0.90;0.80;;;15.80;60.50;;;;;;4991890;28;20022;-67
2023/03/05 10:55:43;;;;;;;0.60;0.60;;;15.80;60.60;;;;;;4994976;28;20034;-66
2023/03/05 10:58:13;;;;;;;1.08;0.80;;;15.80;60.50;;;;;;4992843;28;20033;-67
2023/03/05 11:00:39;;;;;;;0.73;0.73;;;15.80;60.50;;;;;;4975732;28;20516;-67
2023/03/05 11:03:09;;;;;;;1.33;0.85;;;15.80;60.50;;;;;;4991851;28;20070;-66
2023/03/05 11:05:37;;;;;;;1.05;0.60;;;15.80;60.50;;;;;;4991454;28;20034;-67
2023/03/05 11:08:18;;;;;;;0.70;0.60;;;15.80;60.60;;;;;;4993040;28;20022;-67
2023/03/05 11:10:44;;;;;;;0.60;0.60;;;15.80;60.60;;;;;;4992895;28;20536;-67
2023/03/05 11:13:28;;;;;;;1.35;0.65;;;15.80;60.60;;;;;;4991893;28;20031;-67
2023/03/05 11:16:04;;;;;;;2.05;0.82;;;15.80;60.50;;;;;;4991646;28;20030;-67
2023/03/05 11:18:33;;;;;;;0.75;0.60;;;15.80;60.60;;;;;;4991416;28;20030;-67
2023/03/05 11:21:26;;;;;;;0.77;0.65;;;15.80;60.50;;;;;;4992502;28;20037;-66
2023/03/05 11:24:15;;;;;;;;;;;15.80;60.60;;;;;;4995783;28;20513;-67
2023/03/05 11:26:48;;;;;;;0.50;0.50;;;15.70;60.50;;;;;;4998410;28;19916;-67
2023/03/05 11:29:30;;;;;;;0.40;0.40;;;15.80;60.60;;;;;;4995505;28;20022;-67
2023/03/05 11:32:13;;;;;;;0.75;0.60;;;15.80;60.60;;;;;;4978826;28;20417;-66
2023/03/05 11:34:39;;;;;;;;;;;15.80;60.60;;;;;;4995439;28;20032;-67
2023/03/05 11:37:05;;;;;;;0.63;0.50;;;15.70;60.50;;;;;;4995694;28;19917;-66
2023/03/05 11:39:34;;;;;;;1.42;0.70;;;15.80;60.60;;;;;;4998022;28;20034;-66
2023/03/05 11:42:09;;;;;;;1.00;0.70;;;15.80;60.60;;;;;;4985133;28;20030;-68
2023/03/05 11:44:52;;;;;;;3.60;2.38;;;15.80;60.50;;;;;;4995200;28;20034;-69
2023/03/05 11:47:38;;;;;;;9.38;3.88;;;15.80;60.50;;;;;;4994667;28;20037;-68
2023/03/05 11:50:20;;;;;;;6.22;4.28;;;15.80;60.90;;;;;;4995438;28;20018;-68
2023/03/05 11:52:47;;;;;;;6.70;4.00;;;15.80;61.50;;;;;;4995349;28;20110;-68
2023/03/05 11:55:14;;;;;;;5.82;4.38;;;15.80;62.00;;;;;;4979301;28;20030;-69
2023/03/05 11:58:00;;;;;;;7.90;4.25;;;15.90;62.50;;;;;;4995273;28;20065;-67
2023/03/05 12:00:30;;;;;;;4.97;4.05;;;15.90;63.30;;;;;;4977164;28;20459;-67
2023/03/05 12:02:57;;;;;;;5.97;4.28;;;16.00;63.80;;;;;;4967793;28;20045;-67
2023/03/05 12:05:23;;;;;;;9.93;4.43;;;16.00;63.90;;;;;;4978981;28;20105;-69
2023/03/05 12:07:50;;;;;;;9.63;3.70;;;16.00;64.20;;;;;;4996112;28;20105;-68
2023/03/05 12:10:18;;;;;;;5.80;3.50;;;16.10;64.20;;;;;;4979072;28;20102;-70
2023/03/05 12:12:46;;;;;;;12.73;3.70;;;16.10;64.40;;;;;;4978823;28;20022;-69
2023/03/05 12:15:21;;;;;;;9.05;3.72;;;16.20;64.80;;;;;;4995044;28;20049;-68
2023/03/05 12:18:01;;;;;;;11.38;3.50;;;16.20;65.40;;;;;;4995970;28;20022;-69
2023/03/05 12:21:03;;;;;;;7.50;3.58;;;16.20;65.20;;;;;;4980408;28;20460;-68
2023/03/05 12:23:29;;;;;;;6.07;3.03;;;16.30;65.30;;;;;;4994764;28;20042;-68
2023/03/05 12:25:56;;;;;;;5.65;3.28;;;16.30;65.20;;;;;;4978158;28;20041;-69
2023/03/05 12:28:28;;;;;;;8.95;3.30;;;16.30;65.40;;;;;;4978941;28;20023;-69
2023/03/05 12:30:55;;;;;;;5.97;2.80;;;16.30;65.40;;;;;;4995621;28;20022;-68
2023/03/05 12:33:36;;;;;;;4.78;2.70;;;16.40;65.50;;;;;;4993985;28;20024;-68
2023/03/05 12:36:14;;;;;;;6.22;3.08;;;16.40;65.30;;;;;;4994325;28;20038;-69
2023/03/05 12:38:40;;;;;;;5.43;2.65;;;16.40;65.20;;;;;;4995701;28;20041;-69
2023/03/05 12:41:29;;;;;;;5.07;2.78;;;16.40;65.00;;;;;;4994758;28;20030;-68
2023/03/05 12:44:07;;;;;;;7.75;3.00;;;16.40;65.00;;;;;;4980300;28;20039;-68
2023/03/05 12:46:42;;;;;;;4.03;2.45;;;16.40;64.90;;;;;;4975995;28;20077;-68
2023/03/05 12:49:17;;;;;;;4.50;2.45;;;16.40;64.80;;;;;;4975037;28;20022;-67
2023/03/05 12:51:43;;;;;;;6.60;2.42;;;16.40;64.70;;;;;;4976027;28;20031;-68
2023/03/05 12:54:22;;;;;;;6.93;2.70;;;16.40;64.70;;;;;;4974689;28;20023;-68
2023/03/05 12:56:48;;;;;;;20.60;4.40;;;16.40;64.70;;;;;;4974611;28;20405;-68